Time;durP1;ratioP1;P1;durP2;ratioP2;P2;SDS_P1;SDS_P2;PMS_P1;PMS_P2;Temp;Humidity;BMP_temperature;BMP_pressure;BME280_temperature;BME280_humidity;BME280_pressure;Samples;Min_cycle;Max_cycle;Signal;HPM_P1;HPM_P2
2021/12/06 00:00:15;;;;;;;7.73;4.33;;;;;;;-145.69;100.00;72409.38;5134287;27;20200;-76
2021/12/06 00:02:41;;;;;;;9.97;4.33;;;;;;;-145.69;100.00;72409.38;5134373;27;20197;-76
2021/12/06 00:05:09;;;;;;;11.30;5.10;;;;;;;-145.69;100.00;72413.38;5134358;27;20204;-76
2021/12/06 00:07:38;;;;;;;11.13;4.93;;;;;;;-145.69;100.00;72409.38;5134619;27;20193;-76
2021/12/06 00:10:06;;;;;;;17.67;5.07;;;;;;;-145.69;100.00;72409.38;5133487;27;20660;-76
2021/12/06 00:12:33;;;;;;;12.77;5.10;;;;;;;-145.69;100.00;72407.41;5134353;27;20193;-76
2021/12/06 00:14:59;;;;;;;8.40;4.33;;;;;;;-145.69;100.00;72395.47;5134276;27;20231;-76
2021/12/06 00:17:26;;;;;;;11.60;4.20;;;;;;;-145.69;100.00;72405.41;5134193;27;20197;-76
2021/12/06 00:19:52;;;;;;;10.57;4.10;;;;;;;-145.69;100.00;72405.41;5133923;27;20216;-76
2021/12/06 00:22:23;;;;;;;7.80;4.00;;;;;;;-145.69;100.00;72405.41;5134395;27;20204;-76
2021/12/06 00:24:50;;;;;;;9.50;4.03;;;;;;;-145.69;100.00;72409.38;5134240;27;20601;-76
2021/12/06 00:27:17;;;;;;;9.53;4.43;;;;;;;-145.69;100.00;72409.38;5134081;27;20254;-76
2021/12/06 00:29:44;;;;;;;10.40;4.20;;;;;;;-145.69;100.00;72407.41;5133616;27;20525;-76
2021/12/06 00:32:11;;;;;;;6.67;4.00;;;;;;;-145.69;100.00;72401.44;5134340;27;20233;-76
2021/12/06 00:34:38;;;;;;;7.93;3.53;;;;;;;-145.69;100.00;72405.41;5133827;28;20604;-76
2021/12/06 00:37:18;;;;;;;8.47;4.10;;;;;;;-145.69;100.00;72405.41;5134225;27;20285;-76
2021/12/06 00:39:45;;;;;;;7.53;3.70;;;;;;;-145.69;100.00;72411.38;5133938;27;20195;-76
2021/12/06 00:42:12;;;;;;;8.33;3.70;;;;;;;-145.69;100.00;72407.41;5133932;27;20193;-76
2021/12/06 00:44:40;;;;;;;7.23;3.80;;;;;;;-145.69;100.00;72405.41;5134118;27;20279;-76
2021/12/06 00:47:06;;;;;;;8.60;4.10;;;;;;;-145.69;100.00;72405.41;5133862;28;20242;-76
2021/12/06 00:49:33;;;;;;;11.17;3.80;;;;;;;-145.69;100.00;72409.38;5133667;28;20196;-76
2021/12/06 00:52:00;;;;;;;7.00;3.77;;;;;;;-145.69;100.00;72419.34;5133955;27;20228;-76
2021/12/06 00:54:26;;;;;;;6.97;3.60;;;;;;;-145.69;100.00;72421.34;5133833;28;20246;-76
2021/12/06 00:56:53;;;;;;;7.40;3.77;;;;;;;-145.69;100.00;72423.31;5133560;28;20246;-76
2021/12/06 00:59:20;;;;;;;6.30;3.47;;;;;;;-145.69;100.00;72425.31;5133640;27;20196;-76
2021/12/06 01:01:47;;;;;;;7.60;2.97;;;;;;;-145.69;100.00;72413.38;5133896;27;20209;-76
2021/12/06 01:04:15;;;;;;;8.47;3.63;;;;;;;-145.69;100.00;72415.38;5133926;28;20199;-76
2021/12/06 01:06:42;;;;;;;8.00;3.23;;;;;;;-145.69;100.00;72415.38;5133727;28;20201;-76
2021/12/06 01:09:08;;;;;;;6.67;2.90;;;;;;;-145.69;100.00;72413.38;5133282;28;20208;-76
2021/12/06 01:11:35;;;;;;;9.47;3.90;;;;;;;-145.69;100.00;72407.41;5133578;27;20626;-76
2021/12/06 01:14:01;;;;;;;8.60;3.40;;;;;;;-145.69;100.00;72413.38;5133486;27;20207;-76
2021/12/06 01:16:29;;;;;;;10.60;3.80;;;;;;;-145.69;100.00;72419.34;5133600;28;20200;-76
2021/12/06 01:18:57;;;;;;;5.77;3.50;;;;;;;-145.69;100.00;72417.34;5133564;27;20245;-76
2021/12/06 01:21:29;;;;;;;7.23;3.53;;;;;;;-145.69;100.00;72425.31;5135026;27;20311;-76
2021/12/06 01:23:58;;;;;;;10.33;3.17;;;;;;;-145.69;100.00;72425.31;5135438;27;20639;-76
2021/12/06 01:26:44;;;;;;;6.20;3.13;;;;;;;-145.69;100.00;72435.28;5136190;27;20204;-76
2021/12/06 01:29:43;;;;;;;6.23;3.27;;;;;;;-145.69;100.00;72441.25;5137323;27;20188;-76
2021/12/06 01:32:19;;;;;;;6.93;3.73;;;;;;;-145.69;100.00;72445.22;5137304;27;20228;-76
2021/12/06 01:40:24;;;;;;;6.53;3.83;;;;;;;-145.69;100.00;72447.22;5136691;27;20623;-76
2021/12/06 01:42:50;;;;;;;9.80;3.60;;;;;;;-145.69;100.00;72449.19;5136991;27;20192;-76
2021/12/06 01:45:17;;;;;;;9.10;4.10;;;;;;;-145.69;100.00;72449.19;5137053;27;20201;-76
2021/12/06 01:47:46;;;;;;;7.40;3.97;;;;;;;-145.69;100.00;72447.22;5136911;27;20237;-76
2021/12/06 01:50:19;;;;;;;8.10;4.00;;;;;;;-145.69;100.00;72443.22;5136743;27;20761;-76
2021/12/06 01:52:48;;;;;;;8.00;3.40;;;;;;;-145.69;100.00;72445.22;5136984;27;20197;-76
2021/12/06 01:55:18;;;;;;;6.97;3.37;;;;;;;-145.69;100.00;72441.25;5136817;27;20656;-76
2021/12/06 01:57:44;;;;;;;6.93;3.73;;;;;;;-145.69;100.00;72433.28;5136630;27;20189;-76
2021/12/06 02:00:14;;;;;;;7.47;4.03;;;;;;;-145.69;100.00;72429.28;5136755;27;20207;-75
2021/12/06 02:02:41;;;;;;;9.10;4.20;;;;;;;-145.69;100.00;72429.28;5136817;27;20209;-75
2021/12/06 02:05:08;;;;;;;6.70;3.37;;;;;;;-145.69;100.00;72429.28;5136561;27;20197;-76
2021/12/06 02:07:36;;;;;;;7.43;3.73;;;;;;;-145.69;100.00;72433.28;5136298;27;20200;-76
2021/12/06 02:10:04;;;;;;;9.90;4.07;;;;;;;-145.69;100.00;72429.28;5136851;27;20197;-76
2021/12/06 02:12:31;;;;;;;7.50;3.73;;;;;;;-145.69;100.00;72449.19;5136757;27;20261;-76
2021/12/06 02:15:04;;;;;;;8.40;4.20;;;;;;;-145.69;100.00;72435.28;5136588;27;20235;-76
2021/12/06 02:17:35;;;;;;;7.00;3.70;;;;;;;-145.69;100.00;72437.25;5136226;27;20204;-76
2021/12/06 02:20:05;;;;;;;8.50;3.90;;;;;;;-145.69;100.00;72437.25;5136086;27;20228;-76
2021/12/06 02:22:37;;;;;;;8.83;4.17;;;;;;;-145.69;100.00;72441.25;5136757;27;20559;-75
2021/12/06 02:25:13;;;;;;;7.50;3.83;;;;;;;-145.69;100.00;72437.25;5136546;27;20196;-76
2021/12/06 02:27:40;;;;;;;8.97;3.47;;;;;;;-145.69;100.00;72429.28;5135987;27;20719;-76
2021/12/06 02:30:08;;;;;;;10.87;4.50;;;;;;;-145.69;100.00;72435.28;5136185;27;20675;-75
2021/12/06 02:32:35;;;;;;;11.87;4.00;;;;;;;-145.69;100.00;72439.25;5135744;27;20602;-76
2021/12/06 02:35:03;;;;;;;6.83;3.60;;;;;;;-145.69;100.00;72429.28;5136254;27;20295;-76
2021/12/06 02:37:34;;;;;;;8.83;3.50;;;;;;;-145.69;100.00;72421.34;5136008;27;20208;-76
2021/12/06 02:40:05;;;;;;;6.63;3.60;;;;;;;-145.69;100.00;72419.34;5115498;28;20227;-75
2021/12/06 02:42:31;;;;;;;5.37;3.23;;;;;;;-145.69;100.00;72417.34;5115325;28;20262;-76
2021/12/06 02:45:00;;;;;;;8.30;4.30;;;;;;;-145.69;100.00;72417.34;5115268;28;20533;-76
2021/12/06 02:47:27;;;;;;;11.60;4.03;;;;;;;-145.69;100.00;72419.34;5115142;28;20659;-75
2021/12/06 02:49:53;;;;;;;7.23;4.00;;;;;;;-145.69;100.00;72421.34;5134904;27;20189;-76
2021/12/06 02:52:20;;;;;;;6.57;3.40;;;;;;;-145.69;100.00;72409.38;5135307;27;20221;-76
2021/12/06 02:54:54;;;;;;;8.83;3.80;;;;;;;-145.69;100.00;72417.34;5135755;27;20197;-76
2021/12/06 02:57:32;;;;;;;12.17;4.13;;;;;;;-145.69;100.00;72423.31;5135436;27;20219;-76
2021/12/06 02:59:59;;;;;;;7.83;3.50;;;;;;;-145.69;100.00;72425.31;5135593;27;20212;-76
2021/12/06 03:02:30;;;;;;;12.73;4.10;;;;;;;-145.69;100.00;72425.31;5135675;27;20601;-76
2021/12/06 03:04:58;;;;;;;10.07;3.40;;;;;;;-145.69;100.00;72425.31;5135262;27;20299;-76
2021/12/06 03:07:28;;;;;;;6.73;3.80;;;;;;;-145.69;100.00;72421.34;5135354;27;20623;-76
2021/12/06 03:09:55;;;;;;;10.23;4.00;;;;;;;-145.69;100.00;72437.25;5134642;27;20200;-76
2021/12/06 03:12:25;;;;;;;12.17;3.83;;;;;;;-145.69;100.00;72441.25;5134907;27;20220;-76
2021/12/06 03:14:55;;;;;;;7.60;3.73;;;;;;;-145.69;100.00;72449.19;5135005;27;20536;-76
2021/12/06 03:17:23;;;;;;;8.30;3.63;;;;;;;-145.69;100.00;72447.22;5135093;27;20674;-76
2021/12/06 03:19:53;;;;;;;9.70;3.47;;;;;;;-145.69;100.00;72445.22;5134927;27;20253;-75
2021/12/06 03:22:20;;;;;;;6.47;3.73;;;;;;;-145.69;100.00;72449.19;5125005;27;20223;-76
2021/12/06 03:24:47;;;;;;;7.57;3.67;;;;;;;-145.69;100.00;72437.25;5128712;27;20193;-76
2021/12/06 03:27:16;;;;;;;8.63;3.60;;;;;;;-145.69;100.00;72441.25;5135093;27;20207;-76
2021/12/06 03:29:45;;;;;;;9.17;3.60;;;;;;;-145.69;100.00;72435.28;5135043;27;20193;-76
2021/12/06 03:32:15;;;;;;;7.57;3.50;;;;;;;-145.69;100.00;72435.28;5134857;27;20224;-76
2021/12/06 03:34:44;;;;;;;8.17;3.77;;;;;;;-145.69;100.00;72429.28;5134644;27;20192;-76
2021/12/06 03:37:11;;;;;;;8.17;3.37;;;;;;;-145.69;100.00;72439.25;5134816;27;20226;-76
2021/12/06 03:39:41;;;;;;;7.67;3.40;;;;;;;-145.69;100.00;72437.25;5135006;27;20291;-76
2021/12/06 03:42:11;;;;;;;8.07;3.60;;;;;;;-145.69;100.00;72447.22;5134942;27;20208;-76
2021/12/06 03:44:39;;;;;;;7.70;4.33;;;;;;;-145.69;100.00;72441.25;5133738;27;20204;-76
2021/12/06 03:47:10;;;;;;;7.43;3.80;;;;;;;-145.69;100.00;72441.25;5134609;27;20193;-76
2021/12/06 03:49:37;;;;;;;9.47;3.50;;;;;;;-145.69;100.00;72433.28;5134687;27;20203;-76
2021/12/06 03:52:05;;;;;;;8.53;3.77;;;;;;;-145.69;100.00;72441.25;5134726;27;20232;-76
2021/12/06 03:54:32;;;;;;;12.80;4.07;;;;;;;-145.69;100.00;72445.22;5134369;27;20205;-76
2021/12/06 03:56:59;;;;;;;8.30;3.70;;;;;;;-145.69;100.00;72441.25;5134549;27;20193;-76
2021/12/06 03:59:26;;;;;;;13.00;4.23;;;;;;;-145.69;100.00;72433.28;5134224;27;20193;-76
2021/12/06 04:01:54;;;;;;;8.13;4.67;;;;;;;-145.69;100.00;72429.28;5134356;27;20651;-76
2021/12/06 04:04:23;;;;;;;9.00;4.63;;;;;;;-145.69;100.00;72437.25;5133997;27;20200;-76
2021/12/06 04:06:51;;;;;;;12.70;6.30;;;;;;;-145.69;100.00;72445.22;5134255;27;20215;-76
2021/12/06 04:09:17;;;;;;;17.97;7.67;;;;;;;-145.69;100.00;72429.28;5134246;27;20197;-76
2021/12/06 04:11:46;;;;;;;25.27;11.20;;;;;;;-145.69;100.00;72437.25;5134203;27;20220;-76
2021/12/06 04:14:16;;;;;;;25.57;11.50;;;;;;;-145.69;100.00;72433.28;5133846;27;20192;-76
2021/12/06 04:16:44;;;;;;;22.67;9.17;;;;;;;-145.69;100.00;72433.28;5134179;27;20197;-76
2021/12/06 04:19:11;;;;;;;14.03;7.33;;;;;;;-145.69;100.00;72445.22;5134316;27;20203;-76
2021/12/06 04:21:46;;;;;;;13.90;6.90;;;;;;;-145.69;100.00;72445.22;5133572;27;20217;-76
2021/12/06 04:24:13;;;;;;;12.07;5.33;;;;;;;-145.69;100.00;72439.25;5134117;27;20604;-76
2021/12/06 04:26:40;;;;;;;12.60;6.03;;;;;;;-145.69;100.00;72439.25;5134055;27;20224;-76
2021/12/06 04:29:07;;;;;;;11.00;5.87;;;;;;;-145.69;100.00;72453.19;5134112;27;20222;-76
2021/12/06 04:31:37;;;;;;;12.93;5.33;;;;;;;-145.69;100.00;72445.22;5133600;27;20224;-76
2021/12/06 04:34:04;;;;;;;9.60;5.50;;;;;;;-145.69;100.00;72453.19;5134068;28;20197;-76
2021/12/06 04:36:30;;;;;;;10.20;5.67;;;;;;;-145.69;100.00;72463.13;5134008;28;20196;-76
2021/12/06 04:38:58;;;;;;;12.50;5.57;;;;;;;-145.69;100.00;72465.13;5133892;27;20643;-76
2021/12/06 04:41:25;;;;;;;9.47;5.03;;;;;;;-145.69;100.00;72471.09;5133720;27;20196;-76
2021/12/06 04:43:51;;;;;;;8.13;4.50;;;;;;;-145.69;100.00;72475.06;5133988;27;20200;-76
2021/12/06 04:46:18;;;;;;;9.47;4.70;;;;;;;-145.69;100.00;72465.13;5133984;28;20201;-76
2021/12/06 04:48:45;;;;;;;12.13;4.73;;;;;;;-145.69;100.00;72467.13;5133643;27;20524;-76
2021/12/06 04:51:11;;;;;;;11.47;4.90;;;;;;;-145.69;100.00;72467.13;5133555;27;20268;-76
2021/12/06 04:53:40;;;;;;;10.93;5.30;;;;;;;-145.69;100.00;72473.09;5133879;28;20281;-76
2021/12/06 04:56:15;;;;;;;11.67;5.17;;;;;;;-145.69;100.00;72481.03;5136632;27;20605;-76
2021/12/06 04:58:49;;;;;;;10.43;4.70;;;;;;;-145.69;100.00;72489.00;5137851;27;20604;-76
2021/12/06 05:01:21;;;;;;;11.27;4.43;;;;;;;-145.69;100.00;72479.06;5137699;27;20200;-76
2021/12/06 05:03:48;;;;;;;11.43;5.00;;;;;;;-145.69;100.00;72493.00;5137828;27;20245;-76
2021/12/06 05:06:18;;;;;;;9.57;5.03;;;;;;;-145.69;100.00;72481.03;5137710;27;20209;-76
2021/12/06 05:08:49;;;;;;;12.20;4.93;;;;;;;-145.69;100.00;72471.09;5137798;27;20541;-76
2021/12/06 05:11:19;;;;;;;12.73;5.57;;;;;;;-145.69;100.00;72485.03;5137633;27;20208;-75
2021/12/06 05:13:48;;;;;;;14.53;5.97;;;;;;;-145.69;100.00;72496.97;5137838;27;20253;-76
2021/12/06 05:16:14;;;;;;;13.10;5.87;;;;;;;-145.69;100.00;72489.00;5137655;27;20193;-76
2021/12/06 05:18:41;;;;;;;13.33;5.57;;;;;;;-145.69;100.00;72485.03;5137458;27;20201;-75
2021/12/06 05:21:09;;;;;;;15.67;7.00;;;;;;;-145.69;100.00;72498.97;5137340;27;20228;-76
2021/12/06 05:23:35;;;;;;;12.33;6.20;;;;;;;-145.69;100.00;72491.00;5137028;27;20197;-75
2021/12/06 05:26:02;;;;;;;14.13;6.03;;;;;;;-145.69;100.00;72489.00;5122733;27;20254;-76
2021/12/06 05:28:33;;;;;;;14.80;6.37;;;;;;;-145.69;100.00;72496.97;5117108;28;20598;-76
2021/12/06 05:30:59;;;;;;;14.00;6.80;;;;;;;-145.69;100.00;72485.03;5117141;28;20299;-76
2021/12/06 05:33:30;;;;;;;16.37;8.10;;;;;;;-145.69;100.00;72493.00;5135262;27;20248;-76
2021/12/06 05:35:58;;;;;;;17.10;7.47;;;;;;;-145.69;100.00;72496.97;5137440;27;20228;-76
2021/12/06 05:38:26;;;;;;;17.17;7.73;;;;;;;-145.69;100.00;72491.00;5137566;27;20285;-76
2021/12/06 05:40:52;;;;;;;19.03;8.13;;;;;;;-145.69;100.00;72487.00;5137351;27;20224;-76
2021/12/06 05:43:19;;;;;;;19.83;8.60;;;;;;;-145.69;100.00;72487.00;5137301;27;20200;-76
2021/12/06 05:45:46;;;;;;;17.77;8.53;;;;;;;-145.69;100.00;72477.06;5137220;27;20201;-76
2021/12/06 05:48:13;;;;;;;20.43;8.17;;;;;;;-145.69;100.00;72481.03;5136919;27;20197;-76
2021/12/06 05:50:39;;;;;;;20.50;9.70;;;;;;;-145.69;100.00;72483.03;5137050;27;20238;-76
2021/12/06 05:53:06;;;;;;;17.90;8.70;;;;;;;-145.69;100.00;72493.00;5136808;27;20220;-76
2021/12/06 05:55:33;;;;;;;18.60;8.90;;;;;;;-145.69;100.00;72496.97;5137178;27;20193;-76
2021/12/06 05:58:03;;;;;;;26.50;8.87;;;;;;;-145.69;100.00;72493.00;5136960;27;20208;-76
2021/12/06 06:00:32;;;;;;;20.17;8.97;;;;;;;-145.69;100.00;72504.94;5136983;27;20208;-77
2021/12/06 06:03:00;;;;;;;18.47;8.53;;;;;;;-145.69;100.00;72512.91;5136139;27;20257;-76
2021/12/06 06:05:27;;;;;;;19.37;8.70;;;;;;;-145.69;100.00;72512.91;5137155;27;20208;-76
2021/12/06 06:07:54;;;;;;;19.13;8.17;;;;;;;-145.69;100.00;72524.84;5136136;27;20200;-76
2021/12/06 06:10:20;;;;;;;15.27;8.20;;;;;;;-145.69;100.00;72520.84;5136948;27;20606;-76
2021/12/06 06:12:47;;;;;;;21.30;8.87;;;;;;;-145.69;100.00;72524.84;5136355;27;20231;-76
2021/12/06 06:15:14;;;;;;;17.20;8.00;;;;;;;-145.69;100.00;72520.84;5136670;27;20258;-76
2021/12/06 06:17:44;;;;;;;18.67;8.60;;;;;;;-145.69;100.00;72520.84;5136433;27;20193;-76
2021/12/06 06:20:16;;;;;;;23.27;8.97;;;;;;;-145.69;100.00;72532.78;5136854;27;20311;-77
2021/12/06 06:22:43;;;;;;;21.90;9.00;;;;;;;-145.69;100.00;72552.69;5136417;27;20201;-76
2021/12/06 06:25:09;;;;;;;20.30;8.77;;;;;;;-145.69;100.00;72556.69;5136259;27;20201;-76
2021/12/06 06:27:37;;;;;;;23.57;9.43;;;;;;;-145.69;100.00;72560.66;5136515;27;20231;-76
2021/12/06 06:30:05;;;;;;;15.17;8.00;;;;;;;-145.69;100.00;72552.69;5136142;27;20623;-76
2021/12/06 06:32:32;;;;;;;18.60;7.87;;;;;;;-145.69;100.00;72548.72;5136409;27;20224;-76
2021/12/06 06:34:58;;;;;;;20.03;8.77;;;;;;;-145.69;100.00;72552.69;5136063;27;20249;-76
2021/12/06 06:37:26;;;;;;;15.23;7.43;;;;;;;-145.69;100.00;72556.69;5136376;27;20200;-77
2021/12/06 06:39:53;;;;;;;17.47;8.27;;;;;;;-145.69;100.00;72560.66;5136214;27;20204;-76
2021/12/06 06:42:22;;;;;;;19.77;10.20;;;;;;;-145.69;100.00;72548.72;5135314;27;20437;-76
2021/12/06 06:44:50;;;;;;;35.90;13.80;;;;;;;-145.69;100.00;72556.69;5136000;27;20192;-76
2021/12/06 06:47:16;;;;;;;56.50;20.30;;;;;;;-145.69;100.00;72552.69;5135868;27;20735;-76
2021/12/06 06:49:43;;;;;;;56.13;20.23;;;;;;;-145.69;100.00;72552.69;5135994;27;20201;-77
2021/12/06 06:52:09;;;;;;;51.53;17.37;;;;;;;-145.69;100.00;72546.72;5136013;27;20225;-76
2021/12/06 06:54:37;;;;;;;27.43;11.97;;;;;;;-145.69;100.00;72542.75;5135572;27;20196;-76
2021/12/06 06:57:05;;;;;;;17.67;9.23;;;;;;;-145.69;100.00;72542.75;5135766;27;20246;-76
2021/12/06 06:59:31;;;;;;;20.47;9.33;;;;;;;-145.69;100.00;72572.59;5135604;27;20212;-76
2021/12/06 07:01:58;;;;;;;24.30;10.60;;;;;;;-145.69;100.00;72584.56;5135544;27;20201;-76
2021/12/06 07:04:25;;;;;;;19.93;9.23;;;;;;;-145.69;100.00;72580.56;5135302;27;20204;-76
2021/12/06 07:06:52;;;;;;;32.10;12.27;;;;;;;-145.69;100.00;72576.59;5135449;27;20222;-76
2021/12/06 07:09:18;;;;;;;25.43;11.63;;;;;;;-145.69;100.00;72576.59;5135377;27;20307;-77
2021/12/06 07:11:46;;;;;;;26.87;11.37;;;;;;;-145.69;100.00;72566.63;5135238;27;20201;-76
2021/12/06 07:14:14;;;;;;;28.33;12.07;;;;;;;-145.69;100.00;72564.66;5135055;27;20196;-77
2021/12/06 07:16:41;;;;;;;21.80;10.50;;;;;;;-145.69;100.00;72576.59;5135251;27;20261;-76
2021/12/06 07:19:08;;;;;;;26.73;10.20;;;;;;;-145.69;100.00;72574.59;5135059;27;20204;-76
2021/12/06 07:21:34;;;;;;;19.80;9.50;;;;;;;-145.69;100.00;72572.59;5135066;27;20311;-76
2021/12/06 07:24:01;;;;;;;28.07;11.00;;;;;;;-145.69;100.00;72570.63;5130161;27;20230;-77
2021/12/06 07:26:28;;;;;;;26.23;12.33;;;;;;;-145.69;100.00;72588.53;5134945;27;20205;-77
2021/12/06 07:28:56;;;;;;;22.50;10.77;;;;;;;-145.69;100.00;72582.56;5135189;27;20201;-76
2021/12/06 07:31:23;;;;;;;20.00;10.17;;;;;;;-145.69;100.00;72588.53;5135040;27;20200;-77
2021/12/06 07:33:51;;;;;;;22.57;9.33;;;;;;;-145.69;100.00;72588.53;5134445;27;20228;-76
2021/12/06 07:36:20;;;;;;;16.93;8.17;;;;;;;-145.69;100.00;72596.50;5134636;27;20196;-77
2021/12/06 07:38:47;;;;;;;20.50;9.00;;;;;;;-145.69;100.00;72602.47;5134625;27;20205;-76
2021/12/06 07:41:17;;;;;;;20.67;9.00;;;;;;;-145.69;100.00;72614.41;5134613;27;20212;-77
2021/12/06 07:43:44;;;;;;;18.90;8.87;;;;;;;-145.69;100.00;72610.44;5134541;27;20197;-76
2021/12/06 07:46:12;;;;;;;23.43;9.73;;;;;;;-145.69;100.00;72616.41;5134879;27;20207;-76
2021/12/06 07:48:39;;;;;;;23.90;10.07;;;;;;;-145.69;100.00;72616.41;5134688;27;20253;-77
2021/12/06 07:51:07;;;;;;;25.23;10.07;;;;;;;-145.69;100.00;72604.44;5134688;27;20201;-77
2021/12/06 07:53:37;;;;;;;22.80;9.33;;;;;;;-145.69;100.00;72588.53;5133965;27;20232;-77
2021/12/06 07:56:04;;;;;;;25.60;10.63;;;;;;;-145.69;100.00;72584.56;5134645;27;20577;-77
2021/12/06 07:58:30;;;;;;;26.17;10.97;;;;;;;-145.69;100.00;72576.59;5134384;27;20662;-75
2021/12/06 08:00:57;;;;;;;23.93;10.37;;;;;;;-145.69;100.00;72584.56;5134602;27;20201;-76
2021/12/06 08:03:26;;;;;;;24.83;10.70;;;;;;;-145.69;100.00;72578.56;5134413;27;20604;-76
2021/12/06 08:05:54;;;;;;;23.00;10.23;;;;;;;-145.69;100.00;72582.56;5133945;27;20288;-76
2021/12/06 08:08:23;;;;;;;22.67;9.83;;;;;;;-145.69;100.00;72580.56;5134360;27;20200;-76
2021/12/06 08:10:53;;;;;;;19.43;8.90;;;;;;;-145.69;100.00;72568.63;5134378;27;20236;-76
2021/12/06 08:13:21;;;;;;;24.63;10.50;;;;;;;-145.69;100.00;72576.59;5134251;27;20366;-76
2021/12/06 08:15:49;;;;;;;24.37;10.73;;;;;;;-145.69;100.00;72600.47;5133892;27;20246;-76
2021/12/06 08:18:15;;;;;;;28.53;11.13;;;;;;;-145.69;100.00;72600.47;5134158;27;20296;-76
2021/12/06 08:20:44;;;;;;;22.97;9.60;;;;;;;-145.69;100.00;72600.47;5133925;27;20228;-76
2021/12/06 08:23:11;;;;;;;25.67;9.90;;;;;;;-145.69;100.00;72598.47;5134478;27;20228;-76
2021/12/06 08:25:38;;;;;;;25.60;10.67;;;;;;;-145.69;100.00;72620.38;5134209;27;20279;-76
2021/12/06 08:28:05;;;;;;;31.40;12.97;;;;;;;-145.69;100.00;72594.50;5133929;27;20291;-76
2021/12/06 08:30:32;;;;;;;26.67;12.40;;;;;;;-145.69;100.00;72580.56;5132940;27;20204;-76
2021/12/06 08:33:01;;;;;;;28.50;12.63;;;;;;;-145.69;100.00;72566.63;5133934;27;20228;-76
2021/12/06 08:35:29;;;;;;;30.80;10.70;;;;;;;-145.69;100.00;72566.63;5133819;28;20200;-76
2021/12/06 08:37:59;;;;;;;22.17;9.97;;;;;;;-145.69;100.00;72564.66;5134009;27;20283;-76
2021/12/06 08:40:27;;;;;;;24.10;10.20;;;;;;;-145.69;100.00;72566.63;5134007;28;20197;-76
2021/12/06 08:42:53;;;;;;;27.07;10.60;;;;;;;-145.69;100.00;72570.63;5133863;27;20229;-76
2021/12/06 08:45:20;;;;;;;26.03;10.80;;;;;;;-145.69;100.00;72576.59;5133295;28;20188;-76
2021/12/06 08:47:47;;;;;;;27.43;10.40;;;;;;;-145.69;100.00;72582.56;5133145;27;20193;-76
2021/12/06 08:50:18;;;;;;;21.67;9.60;;;;;;;-145.69;100.00;72592.50;5133858;28;20205;-76
2021/12/06 08:52:45;;;;;;;24.53;10.70;;;;;;;-145.69;100.00;72588.53;5133775;28;20249;-76
2021/12/06 08:55:14;;;;;;;26.33;11.20;;;;;;;-145.69;100.00;72584.56;5133470;28;20199;-76
2021/12/06 08:57:41;;;;;;;27.77;12.80;;;;;;;-145.69;100.00;72570.63;5133696;27;20208;-77
2021/12/06 09:00:10;;;;;;;29.93;13.83;;;;;;;-145.69;100.00;72564.66;5133377;27;20197;-76
2021/12/06 09:02:36;;;;;;;25.50;11.17;;;;;;;-145.69;100.00;72590.53;5133708;28;20205;-77
2021/12/06 09:05:03;;;;;;;19.07;9.10;;;;;;;-145.69;100.00;72586.53;5133382;28;20199;-76
2021/12/06 09:07:30;;;;;;;17.63;8.70;;;;;;;-145.69;100.00;72590.53;5133785;28;20201;-77
2021/12/06 09:09:56;;;;;;;16.90;7.90;;;;;;;-145.69;100.00;72580.56;5133507;28;20204;-77
2021/12/06 09:12:28;;;;;;;19.50;8.37;;;;;;;-145.69;100.00;72584.56;5132844;28;20200;-76
2021/12/06 09:14:56;;;;;;;20.73;7.57;;;;;;;-145.69;100.00;72592.50;5133149;27;20276;-76
2021/12/06 09:17:23;;;;;;;16.20;7.97;;;;;;;-145.69;100.00;72586.53;5133335;27;20205;-76
2021/12/06 09:19:51;;;;;;;20.07;8.70;;;;;;;-145.69;100.00;72582.56;5133154;28;20242;-76
2021/12/06 09:22:19;;;;;;;17.03;8.97;;;;;;;-145.69;100.00;72588.53;5133416;28;20197;-76
2021/12/06 09:24:47;;;;;;;18.73;7.70;;;;;;;-145.69;100.00;72612.41;5133292;28;20201;-76
2021/12/06 09:27:14;;;;;;;21.93;8.77;;;;;;;-145.69;100.00;72600.47;5133035;27;20252;-76
2021/12/06 09:29:43;;;;;;;22.60;10.17;;;;;;;-145.69;100.00;72604.44;5133174;27;20193;-76
2021/12/06 09:32:12;;;;;;;12.00;5.63;;;;;;;-145.69;100.00;72632.31;5133190;27;20223;-76
2021/12/06 09:34:42;;;;;;;6.40;3.00;;;;;;;-145.69;100.00;72664.16;5121664;27;20278;-76
2021/12/06 09:37:09;;;;;;;5.03;2.37;;;;;;;-145.69;100.00;72684.06;5118192;28;20193;-77
2021/12/06 09:39:37;;;;;;;3.40;1.60;;;;;;;-145.69;100.00;72711.94;5132882;27;20185;-77
2021/12/06 09:42:04;;;;;;;1.87;1.30;;;;;;;-145.69;100.00;72735.81;5134007;27;20209;-76
2021/12/06 09:44:31;;;;;;;4.03;1.30;;;;;;;-145.69;100.00;72735.81;5137015;27;20196;-77
2021/12/06 09:46:59;;;;;;;2.00;1.00;;;;;;;-145.69;100.00;72735.81;5137175;27;20201;-78
2021/12/06 09:49:27;;;;;;;1.13;0.90;;;;;;;-145.69;100.00;72735.81;5136631;27;20193;-77
2021/12/06 09:51:56;;;;;;;3.17;0.97;;;;;;;-145.69;100.00;72743.78;5136981;27;20736;-77
2021/12/06 09:54:25;;;;;;;1.53;0.73;;;;;;;-145.69;100.00;72731.84;5136726;27;20751;-77
2021/12/06 09:56:53;;;;;;;0.73;0.70;;;;;;;-145.69;100.00;72719.91;5136749;27;20253;-77
2021/12/06 09:59:23;;;;;;;2.23;0.77;;;;;;;-145.69;100.00;72725.88;5136458;27;20696;-77
2021/12/06 10:01:53;;;;;;;1.80;0.50;;;;;;;-145.69;100.00;72690.03;5136793;27;20205;-77
2021/12/06 10:04:24;;;;;;;3.33;0.73;;;;;;;-145.69;100.00;72674.13;5136644;27;20211;-77
2021/12/06 10:06:51;;;;;;;4.23;1.50;;;;;;;-145.69;100.00;72711.94;5136526;27;20215;-78
2021/12/06 10:09:19;;;;;;;3.90;2.23;;;;;;;-145.69;100.00;72701.97;5136296;27;20200;-77
2021/12/06 10:11:46;;;;;;;2.80;1.70;;;;;;;-145.69;100.00;72660.19;5136170;27;20589;-77
2021/12/06 10:14:13;;;;;;;1.23;1.00;;;;;;;-145.69;100.00;72614.41;5136506;27;20232;-77
2021/12/06 10:16:40;;;;;;;1.33;0.80;;;;;;;-145.69;100.00;72600.47;5136477;27;20743;-77
2021/12/06 10:19:07;;;;;;;1.83;0.60;;;;;;;-145.69;100.00;72566.63;5136178;27;20245;-77
2021/12/06 10:21:36;;;;;;;1.40;0.80;;;;;;;-145.69;100.00;72572.59;5136177;27;20236;-78
2021/12/06 10:24:03;;;;;;;0.93;0.57;;;;;;;-145.69;100.00;72592.50;5136706;27;20241;-78
2021/12/06 10:26:32;;;;;;;3.73;1.30;;;;;;;-145.69;100.00;72496.97;5136595;27;20245;-78
2021/12/06 10:29:02;;;;;;;10.37;3.47;;;;;;;-145.69;100.00;72421.34;5129207;27;20655;-77
2021/12/06 10:31:31;;;;;;;11.80;5.80;;;;;;;-145.69;100.00;72401.44;5136258;27;20196;-78
2021/12/06 10:33:58;;;;;;;5.57;3.10;;;;;;;-145.69;100.00;72485.03;5135815;27;20220;-76
2021/12/06 10:36:27;;;;;;;3.10;1.83;;;;;;;-145.69;100.00;72502.94;5135805;27;20609;-76
2021/12/06 10:39:01;;;;;;;5.40;2.53;;;;;;;-145.69;100.00;72463.13;5135639;27;20209;-76
2021/12/06 10:41:29;;;;;;;14.73;6.13;;;;;;;-145.69;100.00;72532.78;5136097;27;20208;-75
2021/12/06 10:43:58;;;;;;;15.63;5.80;;;;;;;-145.69;100.00;72500.94;5135637;27;20686;-78
2021/12/06 10:46:26;;;;;;;9.20;3.00;;;;;;;-145.69;100.00;72455.16;5135692;27;20201;-76
2021/12/06 10:48:55;;;;;;;4.20;1.97;;;;;;;-145.69;100.00;72429.28;5135921;27;20193;-76
2021/12/06 10:51:23;;;;;;;2.73;1.10;;;;;;;-145.69;100.00;72461.13;5119485;27;20192;-76
2021/12/06 10:53:59;;;;;;;2.70;1.10;;;;;;;-145.69;100.00;72473.09;5134842;27;20510;-75
2021/12/06 10:56:37;;;;;;;1.23;0.70;;;;;;;-145.69;100.00;72469.09;5135527;27;20295;-75
2021/12/06 10:59:07;;;;;;;1.77;0.90;;;;;;;-145.69;100.00;72506.91;5115339;28;20205;-76
2021/12/06 11:01:34;;;;;;;1.63;0.90;;;;;;;-145.69;100.00;72544.75;5115256;28;20201;-77
2021/12/06 11:04:03;;;;;;;3.20;1.83;;;;;;;-145.69;100.00;72544.75;5115058;28;20254;-77
2021/12/06 11:06:32;;;;;;;2.10;1.40;;;;;;;-145.69;100.00;72568.63;5135188;27;20193;-77
2021/12/06 11:09:00;;;;;;;2.20;1.50;;;;;;;-145.69;100.00;72522.84;5135474;27;20203;-77
2021/12/06 11:11:31;;;;;;;2.07;1.20;;;;;;;-145.69;100.00;72491.00;5135390;27;20205;-77
2021/12/06 11:13:59;;;;;;;2.00;1.10;;;;;;;-145.69;100.00;72469.09;5135394;27;20263;-77